Time;durP1;ratioP1;P1;durP2;ratioP2;P2;SDS_P1;SDS_P2;PMS_P1;PMS_P2;Temp;Humidity;BMP_temperature;BMP_pressure;BME280_temperature;BME280_humidity;BME280_pressure;Samples;Min_cycle;Max_cycle;Signal;HPM_P1;HPM_P2
2022/12/27 00:00:47;;;;;;;;;;;;;;;25.85;44.08;95068.94;4939403;29;7046;-62
2022/12/27 00:03:24;;;;;;;;;;;;;;;25.86;44.37;95069.72;4910355;29;7315;-63
2022/12/27 00:05:50;;;;;;;;;;;;;;;25.86;43.97;95067.69;4930001;29;7061;-63
2022/12/27 00:08:25;;;;;;;;;;;;;;;25.87;44.42;95079.47;4960488;28;7826;-63
2022/12/27 00:10:55;;;;;;;;;;;;;;;25.85;43.51;95066.19;5007529;28;7263;-63
2022/12/27 00:13:29;;;;;;;;;;;;;;;25.87;43.72;95077.47;4994591;28;7264;-63
2022/12/27 00:16:21;;;;;;;;;;;;;;;25.88;43.46;95087.22;4991613;28;9291;-62
2022/12/27 00:18:54;;;;;;;;;;;;;;;25.86;43.96;95084.22;4986490;28;7031;-64
2022/12/27 00:21:22;;;;;;;;;;;;;;;25.86;43.82;95089.72;5007263;28;7173;-63
2022/12/27 00:24:16;;;;;;;;;;;;;;;25.86;44.29;95080.72;4991645;28;10226;-63
2022/12/27 00:26:58;;;;;;;;;;;;;;;25.87;43.63;95080.22;4954703;28;7093;-63
2022/12/27 00:29:33;;;;;;;;;;;;;;;25.86;43.62;95077.97;4955083;28;7266;-64
2022/12/27 00:32:01;;;;;;;;;;;;;;;25.86;43.54;95083.50;4954987;28;7229;-63
2022/12/27 00:34:30;;;;;;;;;;;;;;;25.85;43.82;95088.25;4954383;28;7108;-63
2022/12/27 00:36:58;;;;;;;;;;;;;;;25.86;44.11;95089.00;4970054;28;7292;-63
2022/12/27 00:39:24;;;;;;;;;;;;;;;25.88;44.26;95094.78;4962611;28;7501;-62
2022/12/27 00:41:55;;;;;;;;;;;;;;;25.84;43.82;95099.75;4965055;28;7420;-63
2022/12/27 00:44:20;;;;;;;;;;;;;;;25.85;43.70;95101.25;4968209;28;7037;-63
2022/12/27 00:46:48;;;;;;;;;;;;;;;25.87;44.30;95107.78;4956554;28;8968;-63
2022/12/27 00:49:13;;;;;;;;;;;;;;;25.86;44.37;95106.28;4983162;28;7724;-62
2022/12/27 00:51:58;;;;;;;;;;;;;;;25.86;44.36;95106.28;4975858;28;7183;-63
2022/12/27 00:54:26;;;;;;;;;;;;;;;25.87;43.82;95102.28;4966023;28;7228;-63
2022/12/27 00:57:01;;;;;;;;;;;;;;;25.86;43.71;95106.28;4947624;28;9716;-64
2022/12/27 00:59:28;;;;;;;;;;;;;;;25.86;43.78;95111.06;4972559;28;8636;-63
2022/12/27 01:02:13;;;;;;;;;;;;;;;25.86;44.19;95122.81;4977815;28;7388;-64
2022/12/27 01:04:40;;;;;;;;;;;;;;;25.86;43.53;95136.59;4990677;28;7112;-64
2022/12/27 01:07:05;;;;;;;;;;;;;;;25.86;44.46;95133.81;5009317;28;7026;-63
2022/12/27 01:09:50;;;;;;;;;;;;;;;25.85;44.23;95143.34;4999791;28;9297;-63
2022/12/27 01:12:16;;;;;;;;;;;;;;;25.84;43.51;95135.56;4994145;28;7420;-63
2022/12/27 01:14:42;;;;;;;;;;;;;;;25.86;43.81;95141.38;4990390;28;7523;-63
2022/12/27 01:17:08;;;;;;;;;;;;;;;25.88;43.76;95153.38;5008146;28;7637;-64
2022/12/27 01:19:37;;;;;;;;;;;;;;;25.89;43.68;95154.13;4992733;28;9041;-62
2022/12/27 01:22:08;;;;;;;;;;;;;;;25.88;43.56;95158.16;5009922;28;7148;-64
2022/12/27 01:24:38;;;;;;;;;;;;;;;25.88;44.05;95155.41;5004589;28;7698;-62
2022/12/27 01:27:20;;;;;;;;;;;;;;;25.86;44.31;95161.38;5009729;28;7275;-63
2022/12/27 01:29:47;;;;;;;;;;;;;;;25.86;44.08;95169.66;5008483;28;7423;-63
2022/12/27 01:32:12;;;;;;;;;;;;;;;25.84;44.40;95154.84;4994399;28;6974;-63
2022/12/27 01:34:50;;;;;;;;;;;;;;;25.86;43.94;95172.41;5010936;28;7519;-63
2022/12/27 01:37:19;;;;;;;;;;;;;;;25.86;43.87;95177.19;5010395;28;7569;-64
2022/12/27 01:39:47;;;;;;;;;;;;;;;25.87;44.12;95167.66;4991761;28;7107;-64
2022/12/27 01:45:39;;;;;;;;;;;;;;;25.88;44.21;95186.44;4995276;28;7280;-63
2022/12/27 01:48:12;;;;;;;;;;;;;;;25.87;44.22;95190.47;4934432;28;10592;-63
2022/12/27 01:50:57;;;;;;;;;;;;;;;25.87;43.98;95187.72;4931002;29;9452;-63
2022/12/27 01:53:31;;;;;;;;;;;;;;;25.84;43.70;95199.72;4923811;29;7667;-62
2022/12/27 01:56:24;;;;;;;;;;;;;;;25.85;44.32;95198.47;4918449;29;7280;-64
2022/12/27 01:59:05;;;;;;;;;;;;;;;25.84;44.00;95196.97;4931835;29;7144;-63
2022/12/27 02:01:46;;;;;;;;;;;;;;;25.83;44.21;95191.94;4908947;29;7200;-63
2022/12/27 02:04:18;;;;;;;;;;;;;;;25.83;43.76;95202.97;4933231;29;7788;-64
2022/12/27 02:06:56;;;;;;;;;;;;;;;25.85;44.40;95208.75;4931538;29;9053;-63
2022/12/27 02:09:49;;;;;;;;;;;;;;;25.82;44.23;95198.69;4930537;29;7145;-63
2022/12/27 02:12:18;;;;;;;;;;;;;;;25.82;43.96;95198.69;4932876;29;7134;-61
2022/12/27 02:15:17;;;;;;;;;;;;;;;25.82;43.68;95207.72;4932928;29;8780;-63
2022/12/27 02:18:21;;;;;;;;;;;;;;;25.83;44.16;95206.50;4918610;29;7021;-64
2022/12/27 02:21:03;;;;;;;;;;;;;;;25.83;44.65;95205.72;4892530;29;7279;-64
2022/12/27 02:24:26;;;;;;;;;;;;;;;25.82;43.75;95202.22;4885051;29;7571;-62
2022/12/27 02:27:31;;;;;;;;;;;;;;;25.82;44.63;95204.97;4853191;29;7314;-63
2022/12/27 02:30:47;;;;;;;;;;;;;;;25.83;44.51;95217.50;4841867;29;7129;-64
2022/12/27 02:33:31;;;;;;;;;;;;;;;25.81;44.46;95225.53;4803730;29;6996;-63
2022/12/27 02:36:06;;;;;;;;;;;;;;;25.90;44.23;95217.03;4803308;29;7045;-62
2022/12/27 02:38:38;;;;;;;;;;;;;;;25.89;43.71;95223.81;4792766;29;7155;-63
2022/12/27 02:53:04;;;;;;;;;;;;;;;25.91;43.91;95224.06;4801541;29;8854;-63
2022/12/27 02:58:57;;;;;;;;;;;;;;;25.91;43.70;95229.56;4872876;29;7111;-63
2022/12/27 03:05:04;;;;;;;;;;;;;;;25.91;43.51;95234.31;4931655;29;7014;-63
2022/12/27 03:07:58;;;;;;;;;;;;;;;25.89;43.61;95243.09;4932396;28;8715;-62
2022/12/27 03:17:08;;;;;;;;;;;;;;;25.83;44.12;95242.31;4992639;28;7342;-63
2022/12/27 03:25:28;;;;;;;;;;;;;;;25.83;43.60;95252.56;4988745;28;7037;-62
2022/12/27 03:34:47;;;;;;;;;;;;;;;25.85;44.61;95253.59;4949303;28;9036;-61
2022/12/27 03:40:15;;;;;;;;;;;;;;;25.88;43.90;95240.84;4951392;28;7448;-61
2022/12/27 03:43:09;;;;;;;;;;;;;;;25.87;43.70;95240.09;4952384;28;7273;-62
2022/12/27 03:49:04;;;;;;;;;;;;;;;25.85;44.40;95237.06;4946489;29;7127;-62
2022/12/27 03:51:48;;;;;;;;;;;;;;;25.86;44.25;95249.56;4935595;29;8798;-63
2022/12/27 03:54:32;;;;;;;;;;;;;;;25.84;43.81;95245.81;4952208;29;9643;-63
2022/12/27 03:57:18;;;;;;;;;;;;;;;25.86;43.63;95263.34;4958701;28;7218;-61
2022/12/27 03:59:57;;;;;;;;;;;;;;;25.87;43.70;95251.09;4938004;28;7229;-62
2022/12/27 04:02:30;;;;;;;;;;;;;;;25.86;44.05;95246.09;4951916;29;8832;-63
2022/12/27 04:04:56;;;;;;;;;;;;;;;25.87;43.75;95253.84;4951482;29;7261;-62
2022/12/27 04:07:21;;;;;;;;;;;;;;;25.87;44.26;95234.56;4951713;29;7429;-61
2022/12/27 04:35:52;;;;;;;;;;;;;;;25.85;44.05;95228.78;4996114;28;8621;-63
2022/12/27 04:38:18;;;;;;;;;;;;;;;25.84;43.64;95223.75;5011285;28;7235;-63
2022/12/27 04:55:29;;;;;;;;;;;;;;;25.87;43.31;95240.09;4994100;28;7506;-63
2022/12/27 04:57:57;;;;;;;;;;;;;;;25.87;43.63;95250.34;4994103;28;7564;-63
2022/12/27 05:03:29;;;;;;;;;;;;;;;25.83;44.06;95253.34;4995359;28;7016;-64
2022/12/27 05:05:56;;;;;;;;;;;;;;;25.81;44.19;95247.56;4995552;28;7167;-64
2022/12/27 05:13:59;;;;;;;;;;;;;;;25.84;44.21;95252.06;4992416;28;7025;-62
2022/12/27 05:16:45;;;;;;;;;;;;;;;25.83;44.16;95256.09;5010465;28;7152;-63
2022/12/27 05:19:15;;;;;;;;;;;;;;;25.77;44.33;95252.56;5000801;28;7069;-64
2022/12/27 05:27:29;;;;;;;;;;;;;;;25.77;44.52;95262.81;4993867;28;7003;-63
2022/12/27 05:30:01;;;;;;;;;;;;;;;25.77;44.40;95255.31;4995165;28;8561;-63
2022/12/27 05:32:44;;;;;;;;;;;;;;;25.78;44.36;95267.81;4995025;28;7327;-63
2022/12/27 05:35:10;;;;;;;;;;;;;;;25.75;44.31;95270.81;5010504;28;7001;-63
2022/12/27 05:37:38;;;;;;;;;;;;;;;25.74;44.03;95270.06;4994067;28;7543;-62
2022/12/27 05:40:07;;;;;;;;;;;;;;;25.74;44.02;95272.06;4994727;28;7031;-62
2022/12/27 05:42:33;;;;;;;;;;;;;;;25.75;44.12;95270.81;4993372;28;7046;-63
2022/12/27 05:45:03;;;;;;;;;;;;;;;25.75;44.17;95266.03;5007812;28;7073;-64
2022/12/27 05:47:31;;;;;;;;;;;;;;;25.75;44.53;95263.28;4993633;28;7032;-63
2022/12/27 05:49:58;;;;;;;;;;;;;;;25.74;44.49;95259.03;4994811;28;7216;-63
2022/12/27 05:52:29;;;;;;;;;;;;;;;25.74;44.23;95264.53;5004168;28;7359;-64
2022/12/27 05:55:01;;;;;;;;;;;;;;;25.72;44.67;95271.78;5009956;28;7276;-64
2022/12/27 05:57:47;;;;;;;;;;;;;;;25.70;44.26;95274.28;4993919;28;7359;-63
2022/12/27 06:00:42;;;;;;;;;;;;;;;25.70;43.94;95275.03;4994101;28;7236;-62
2022/12/27 06:03:13;;;;;;;;;;;;;;;25.71;44.12;95284.81;4971416;28;7002;-63
2022/12/27 06:06:14;;;;;;;;;;;;;;;25.74;44.16;95280.31;4947658;28;7190;-63
2022/12/27 06:08:49;;;;;;;;;;;;;;;25.77;44.21;95279.34;4931321;28;9480;-64
2022/12/27 06:11:23;;;;;;;;;;;;;;;25.75;44.21;95271.56;4916253;29;7273;-64
2022/12/27 06:14:04;;;;;;;;;;;;;;;25.79;43.86;95282.38;4934410;28;7089;-64
2022/12/27 06:17:08;;;;;;;;;;;;;;;25.81;43.99;95283.38;4932344;29;7259;-63
2022/12/27 06:19:53;;;;;;;;;;;;;;;25.81;44.17;95288.91;4917422;29;7045;-64
2022/12/27 06:22:30;;;;;;;;;;;;;;;25.85;44.11;95280.41;4912793;29;7190;-63
2022/12/27 06:25:05;;;;;;;;;;;;;;;25.83;44.40;95277.38;4925734;29;9510;-64
2022/12/27 06:27:44;;;;;;;;;;;;;;;25.83;44.29;95286.41;4901877;29;7043;-64
2022/12/27 06:30:44;;;;;;;;;;;;;;;25.85;44.30;95286.66;4902500;29;8758;-64
2022/12/27 06:33:18;;;;;;;;;;;;;;;25.86;43.73;95295.69;4898017;29;6950;-62
2022/12/27 06:36:07;;;;;;;;;;;;;;;25.84;44.23;95292.66;4905320;29;7148;-64
2022/12/27 06:38:34;;;;;;;;;;;;;;;25.85;43.62;95291.41;4908049;29;7546;-63
2022/12/27 06:41:01;;;;;;;;;;;;;;;25.86;44.11;95299.19;4880314;29;7041;-63
2022/12/27 06:43:56;;;;;;;;;;;;;;;25.86;43.42;95304.69;4893014;29;7652;-63
2022/12/27 06:46:41;;;;;;;;;;;;;;;25.86;43.88;95310.22;4860446;29;7353;-64
2022/12/27 06:49:38;;;;;;;;;;;;;;;25.88;43.46;95315.25;4870264;29;7211;-63
2022/12/27 06:52:04;;;;;;;;;;;;;;;25.86;44.17;95326.75;4824996;29;6995;-64
2022/12/27 06:54:31;;;;;;;;;;;;;;;25.89;43.71;95319.50;4866086;29;9022;-62
2022/12/27 06:57:18;;;;;;;;;;;;;;;25.90;43.37;95316.25;4869107;29;8147;-62
2022/12/27 06:59:45;;;;;;;;;;;;;;;25.90;44.07;95324.53;4860927;29;7225;-63
2022/12/27 07:02:13;;;;;;;;;;;;;;;25.85;43.97;95324.50;4865039;29;7039;-62
2022/12/27 07:04:39;;;;;;;;;;;;;;;25.85;44.68;95330.78;4854507;29;7217;-62
2022/12/27 07:07:08;;;;;;;;;;;;;;;25.85;44.02;95330.78;4851466;29;7273;-64
2022/12/27 07:09:34;;;;;;;;;;;;;;;25.88;44.01;95340.78;4869159;29;7045;-62
2022/12/27 07:12:02;;;;;;;;;;;;;;;25.87;44.50;95342.06;4856632;29;7143;-62
2022/12/27 07:14:29;;;;;;;;;;;;;;;25.84;43.75;95347.78;4857102;29;7660;-62
2022/12/27 07:17:11;;;;;;;;;;;;;;;25.81;44.83;95343.25;4861904;29;9205;-63
2022/12/27 07:19:37;;;;;;;;;;;;;;;25.75;44.58;95342.47;4853244;29;7305;-63
2022/12/27 07:22:06;;;;;;;;;;;;;;;25.70;45.07;95348.69;4879659;29;7201;-62
2022/12/27 07:24:41;;;;;;;;;;;;;;;25.70;44.48;95357.72;4926380;29;7489;-63
2022/12/27 07:27:09;;;;;;;;;;;;;;;25.62;45.27;95362.13;4912848;29;9041;-60
2022/12/27 07:29:41;;;;;;;;;;;;;;;25.60;45.01;95364.63;4982670;28;8263;-63
2022/12/27 07:32:13;;;;;;;;;;;;;;;25.59;44.80;95357.59;4987487;28;7296;-62
2022/12/27 07:34:46;;;;;;;;;;;;;;;25.62;45.18;95362.13;4988778;28;7352;-62
2022/12/27 07:37:22;;;;;;;;;;;;;;;25.63;45.17;95355.38;5003540;28;7471;-62
2022/12/27 07:39:48;;;;;;;;;;;;;;;25.65;45.45;95357.63;4984109;28;7408;-62
2022/12/27 07:42:14;;;;;;;;;;;;;;;25.66;45.46;95367.44;4981015;28;7041;-63
2022/12/27 07:44:40;;;;;;;;;;;;;;;25.69;45.23;95363.69;5003411;28;6986;-63
2022/12/27 07:47:15;;;;;;;;;;;;;;;25.80;45.32;95366.53;5004947;28;7024;-63
2022/12/27 07:49:40;;;;;;;;;;;;;;;25.73;45.15;95358.72;4997549;28;7095;-62
2022/12/27 07:52:06;;;;;;;;;;;;;;;25.72;44.87;95365.47;5003502;28;8808;-62
2022/12/27 07:54:32;;;;;;;;;;;;;;;25.71;45.44;95356.44;4998128;28;7122;-61
2022/12/27 07:56:58;;;;;;;;;;;;;;;25.70;44.80;95354.94;4988201;28;9531;-60
2022/12/27 07:59:29;;;;;;;;;;;;;;;25.66;44.90;95351.66;4988396;28;9007;-62
2022/12/27 08:02:05;;;;;;;;;;;;;;;25.69;45.04;95347.91;4997044;28;7185;-62
2022/12/27 08:04:37;;;;;;;;;;;;;;;25.69;45.05;95349.91;4992742;28;7557;-62
2022/12/27 08:07:10;;;;;;;;;;;;;;;25.68;45.02;95354.69;4998438;28;7479;-62
2022/12/27 08:09:47;;;;;;;;;;;;;;;25.69;45.04;95347.91;5010640;28;7234;-62
2022/12/27 08:12:17;;;;;;;;;;;;;;;25.71;45.10;95347.44;5003987;28;7125;-62
2022/12/27 08:14:44;;;;;;;;;;;;;;;25.73;45.27;95344.97;5004971;28;7244;-63
2022/12/27 08:17:20;;;;;;;;;;;;;;;25.74;45.50;95347.22;4993670;28;7286;-63
2022/12/27 08:20:18;;;;;;;;;;;;;;;25.81;45.12;95349.53;4993056;28;7268;-63
2022/12/27 08:22:48;;;;;;;;;;;;;;;25.80;44.65;95345.25;4933185;28;7223;-63
2022/12/27 08:25:27;;;;;;;;;;;;;;;25.79;45.41;95341.00;4947752;28;7501;-61
2022/12/27 08:28:09;;;;;;;;;;;;;;;25.91;44.33;95350.09;4942074;28;9027;-63
2022/12/27 08:30:37;;;;;;;;;;;;;;;25.90;44.18;95354.09;4956259;28;7364;-62
2022/12/27 08:33:08;;;;;;;;;;;;;;;25.93;44.49;95356.63;4943558;28;9371;-61
2022/12/27 08:35:45;;;;;;;;;;;;;;;25.89;44.89;95358.84;4961649;28;7374;-62
2022/12/27 08:38:21;;;;;;;;;;;;;;;25.94;43.84;95360.91;4963993;28;7295;-61
2022/12/27 08:40:47;;;;;;;;;;;;;;;25.95;44.08;95358.88;4930639;28;7243;-63
2022/12/27 08:43:16;;;;;;;;;;;;;;;25.98;44.53;95366.94;4953394;28;7133;-62
2022/12/27 08:45:42;;;;;;;;;;;;;;;25.98;44.83;95361.44;4951137;28;7146;-63
2022/12/27 08:48:08;;;;;;;;;;;;;;;25.90;44.55;95365.13;4938878;28;7520;-63
2022/12/27 08:50:47;;;;;;;;;;;;;;;25.91;44.57;95361.88;4952040;28;7611;-65
2022/12/27 08:53:22;;;;;;;;;;;;;;;25.86;45.62;95368.09;4955110;28;9140;-63
2022/12/27 08:55:47;;;;;;;;;;;;;;;25.90;44.80;95367.88;4950991;28;7227;-62
2022/12/27 08:58:16;;;;;;;;;;;;;;;25.94;44.05;95373.94;4963735;28;9038;-61
2022/12/27 09:00:49;;;;;;;;;;;;;;;25.96;44.53;95363.16;5010103;28;7628;-62
2022/12/27 09:03:21;;;;;;;;;;;;;;;25.95;44.37;95367.16;5008833;28;6942;-62
2022/12/27 09:05:48;;;;;;;;;;;;;;;25.99;44.53;95371.19;4989687;28;7256;-62
2022/12/27 09:08:16;;;;;;;;;;;;;;;26.00;44.32;95380.22;5009825;28;7071;-63
2022/12/27 09:10:42;;;;;;;;;;;;;;;26.01;43.84;95371.47;5008640;28;6868;-63
2022/12/27 09:13:08;;;;;;;;;;;;;;;26.01;44.36;95367.97;5009858;28;7446;-62
2022/12/27 09:15:36;;;;;;;;;;;;;;;26.01;44.08;95379.72;5006744;28;9054;-63
2022/12/27 09:18:02;;;;;;;;;;;;;;;26.00;44.13;95381.00;4992290;28;7055;-59
2022/12/27 09:20:48;;;;;;;;;;;;;;;26.00;43.93;95383.75;5003468;28;7452;-64
2022/12/27 09:23:29;;;;;;;;;;;;;;;25.99;44.37;95379.47;5002250;28;7472;-63
2022/12/27 09:26:29;;;;;;;;;;;;;;;25.98;44.39;95375.22;4990748;28;7415;-64
2022/12/27 09:28:56;;;;;;;;;;;;;;;25.99;44.40;95384.97;4934328;28;7013;-63
2022/12/27 09:31:25;;;;;;;;;;;;;;;25.98;44.04;95386.25;4950832;28;7065;-65
2022/12/27 09:33:55;;;;;;;;;;;;;;;26.00;44.46;95386.50;4949355;28;8813;-65
2022/12/27 09:36:33;;;;;;;;;;;;;;;26.01;44.47;95376.25;4949735;28;7039;-63
2022/12/27 09:39:01;;;;;;;;;;;;;;;25.98;44.25;95383.50;4935337;28;7585;-63
2022/12/27 09:41:51;;;;;;;;;;;;;;;25.96;44.38;95387.97;4934222;28;7073;-64
2022/12/27 09:44:29;;;;;;;;;;;;;;;25.97;44.44;95387.47;4918828;28;8509;-62
2022/12/27 09:47:11;;;;;;;;;;;;;;;25.98;44.14;95386.25;4951843;28;7025;-63
2022/12/27 09:50:00;;;;;;;;;;;;;;;25.96;43.87;95376.94;4946826;28;9429;-62
2022/12/27 09:53:05;;;;;;;;;;;;;;;25.94;44.01;95371.94;4933992;29;7268;-62
2022/12/27 09:55:41;;;;;;;;;;;;;;;25.93;43.35;95370.41;4913603;29;8740;-62
2022/12/27 09:58:25;;;;;;;;;;;;;;;25.92;43.60;95379.94;4928042;28;8769;-61
2022/12/27 10:01:20;;;;;;;;;;;;;;;25.91;43.21;95380.41;4923030;28;8107;-63
2022/12/27 10:03:48;;;;;;;;;;;;;;;25.91;43.98;95367.38;4879963;29;6951;-62
2022/12/27 10:06:32;;;;;;;;;;;;;;;25.93;43.88;95375.91;4911508;29;7384;-62
2022/12/27 10:09:32;;;;;;;;;;;;;;;25.91;42.87;95369.38;4935319;28;8772;-62
2022/12/27 10:12:43;;;;;;;;;;;;;;;25.91;43.78;95367.38;4920809;28;7259;-63
2022/12/27 10:15:29;;;;;;;;;;;;;;;25.92;43.39;95365.41;4896409;29;9164;-63
2022/12/27 10:18:33;;;;;;;;;;;;;;;25.91;43.16;95358.34;4894312;29;7039;-62
2022/12/27 10:21:20;;;;;;;;;;;;;;;25.93;43.78;95362.13;4877507;29;7224;-64
2022/12/27 10:24:09;;;;;;;;;;;;;;;25.92;42.82;95346.88;4893017;29;7256;-62
2022/12/27 10:26:54;;;;;;;;;;;;;;;25.89;43.54;95342.31;4874727;29;7864;-62
2022/12/27 10:29:32;;;;;;;;;;;;;;;25.89;43.58;95341.56;4885023;29;7264;-64
2022/12/27 10:32:29;;;;;;;;;;;;;;;25.87;43.53;95333.03;4862432;29;7020;-63
2022/12/27 10:35:05;;;;;;;;;;;;;;;25.85;43.63;95332.75;4856827;29;7238;-63
2022/12/27 10:37:33;;;;;;;;;;;;;;;25.85;42.99;95330.78;4850155;29;7078;-63
2022/12/27 10:40:18;;;;;;;;;;;;;;;25.86;43.22;95332.25;4872869;29;7026;-63
2022/12/27 10:43:11;;;;;;;;;;;;;;;25.87;43.62;95328.28;4893538;29;7090;-63
2022/12/27 10:45:41;;;;;;;;;;;;;;;25.87;43.22;95317.25;4900039;29;7430;-64
2022/12/27 10:48:30;;;;;;;;;;;;;;;25.92;43.43;95313.03;4878953;29;7883;-63
2022/12/27 10:51:05;;;;;;;;;;;;;;;25.94;43.13;95327.84;4899412;29;7389;-64
2022/12/27 10:54:03;;;;;;;;;;;;;;;25.93;42.79;95320.03;4932079;29;7323;-63
2022/12/27 10:56:40;;;;;;;;;;;;;;;25.94;43.05;95311.28;4906822;29;7198;-63
2022/12/27 10:59:19;;;;;;;;;;;;;;;25.96;42.95;95311.56;4903111;29;7452;-63
2022/12/27 11:02:03;;;;;;;;;;;;;;;25.97;43.32;95306.78;4890166;29;7035;-64
2022/12/27 11:04:58;;;;;;;;;;;;;;;25.96;42.47;95308.78;4905840;29;8555;-64
2022/12/27 11:07:35;;;;;;;;;;;;;;;25.97;43.15;95306.78;4878336;29;7301;-63
2022/12/27 11:10:26;;;;;;;;;;;;;;;25.97;42.64;95309.53;4873123;29;7027;-64
2022/12/27 11:13:06;;;;;;;;;;;;;;;25.97;43.25;95304.03;4945968;28;7323;-62
2022/12/27 11:15:41;;;;;;;;;;;;;;;25.96;43.18;95308.03;4949347;28;7027;-63
2022/12/27 11:18:20;;;;;;;;;;;;;;;25.98;42.86;95314.56;4918520;28;7215;-62
2022/12/27 11:20:54;;;;;;;;;;;;;;;25.98;42.73;95311.81;4951109;28;8882;-62
2022/12/27 11:23:58;;;;;;;;;;;;;;;25.97;42.60;95304.78;4930166;28;7318;-61
2022/12/27 11:26:54;;;;;;;;;;;;;;;25.98;42.73;95303.53;4899416;29;7200;-62
2022/12/27 11:29:37;;;;;;;;;;;;;;;25.98;42.85;95306.31;4897564;29;7334;-62
2022/12/27 11:32:15;;;;;;;;;;;;;;;25.97;42.91;95310.28;4924375;28;7034;-61
2022/12/27 11:34:47;;;;;;;;;;;;;;;25.96;43.58;95308.78;4952039;28;7213;-63
2022/12/27 11:37:26;;;;;;;;;;;;;;;25.95;43.58;95303.75;4935148;28;7482;-61
2022/12/27 11:40:33;;;;;;;;;;;;;;;25.96;43.59;95306.03;4926356;28;7218;-62
2022/12/27 11:43:18;;;;;;;;;;;;;;;25.97;43.06;95298.50;4943791;28;9756;-63
2022/12/27 11:45:50;;;;;;;;;;;;;;;25.97;43.11;95293.75;4934141;29;7221;-63
2022/12/27 11:48:41;;;;;;;;;;;;;;;25.99;43.67;95296.03;4935051;28;9251;-63
2022/12/27 11:51:49;;;;;;;;;;;;;;;26.02;42.87;95295.03;4930701;29;7402;-61
2022/12/27 11:54:38;;;;;;;;;;;;;;;26.02;42.75;95290.28;4888806;29;7074;-63
2022/12/27 11:57:16;;;;;;;;;;;;;;;26.07;43.11;95286.06;4877099;29;9146;-62
2022/12/27 12:00:00;;;;;;;;;;;;;;;26.10;43.39;95283.09;4905930;28;9773;-63
2022/12/27 12:03:08;;;;;;;;;;;;;;;26.13;42.80;95287.63;4946324;28;7253;-64
2022/12/27 12:06:08;;;;;;;;;;;;;;;26.12;43.29;95286.09;4948979;28;7287;-63
2022/12/27 12:09:10;;;;;;;;;;;;;;;26.13;43.37;95282.13;4943746;28;6856;-63
2022/12/27 12:11:42;;;;;;;;;;;;;;;26.13;43.09;95284.88;4944019;28;7386;-63
2022/12/27 12:14:26;;;;;;;;;;;;;;;26.12;43.17;95280.59;4926861;28;7104;-63
2022/12/27 12:17:20;;;;;;;;;;;;;;;26.12;44.03;95277.81;4947330;28;7902;-63
2022/12/27 12:20:11;;;;;;;;;;;;;;;26.15;43.87;95270.59;4951852;28;7461;-62
2022/12/27 12:23:01;;;;;;;;;;;;;;;26.16;43.31;95277.63;4948919;28;8666;-64
2022/12/27 12:26:04;;;;;;;;;;;;;;;26.19;43.54;95278.63;4949906;28;7045;-64
2022/12/27 12:28:37;;;;;;;;;;;;;;;26.17;44.37;95271.59;4946116;28;7194;-63
2022/12/27 12:31:21;;;;;;;;;;;;;;;26.19;44.52;95273.84;4959360;28;6992;-62
2022/12/27 12:34:25;;;;;;;;;;;;;;;26.20;43.88;95271.84;5001465;28;7250;-63
2022/12/27 12:37:10;;;;;;;;;;;;;;;26.20;44.69;95263.59;4985443;28;7121;-63
2022/12/27 12:39:58;;;;;;;;;;;;;;;26.20;44.70;95280.13;5000104;28;7171;-63
2022/12/27 12:42:29;;;;;;;;;;;;;;;26.22;44.45;95275.63;5002677;28;7403;-62
2022/12/27 12:45:26;;;;;;;;;;;;;;;26.21;44.63;95273.38;5004440;28;7274;-64
2022/12/27 12:48:20;;;;;;;;;;;;;;;26.22;44.84;95283.91;5002479;28;7226;-62
2022/12/27 12:51:08;;;;;;;;;;;;;;;26.23;44.01;95281.91;4984952;28;8478;-63
2022/12/27 12:53:58;;;;;;;;;;;;;;;26.23;44.57;95287.44;4994022;28;7336;-63
2022/12/27 12:56:50;;;;;;;;;;;;;;;26.22;44.50;95280.38;5006666;28;7256;-63
2022/12/27 12:59:45;;;;;;;;;;;;;;;26.21;43.86;95276.13;4994426;28;7057;-62
2022/12/27 13:02:34;;;;;;;;;;;;;;;26.21;43.72;95276.13;4994000;28;7278;-63
2022/12/27 13:05:31;;;;;;;;;;;;;;;26.18;44.45;95277.88;4990527;28;8273;-63
2022/12/27 13:08:26;;;;;;;;;;;;;;;26.14;43.45;95269.09;4986556;28;7043;-64
2022/12/27 13:11:01;;;;;;;;;;;;;;;26.12;43.83;95258.53;4991960;28;7064;-63
2022/12/27 13:14:04;;;;;;;;;;;;;;;26.12;44.56;95266.81;5008307;28;7344;-63
2022/12/27 13:17:03;;;;;;;;;;;;;;;26.17;44.39;95252.28;5003441;28;8245;-64
2022/12/27 13:19:54;;;;;;;;;;;;;;;26.19;44.96;95270.38;4927674;29;7468;-63
2022/12/27 13:22:53;;;;;;;;;;;;;;;26.16;44.62;95256.28;4931990;29;7246;-63
2022/12/27 13:25:36;;;;;;;;;;;;;;;26.16;43.91;95267.31;4931856;28;7314;-64
2022/12/27 13:28:07;;;;;;;;;;;;;;;26.17;45.08;95266.09;4932411;29;7302;-64
2022/12/27 13:31:01;;;;;;;;;;;;;;;26.17;45.17;95266.09;4911761;29;7492;-64
2022/12/27 13:37:34;;;;;;;;;;;;;;;26.10;45.46;95258.28;4884282;29;7283;-64
2022/12/27 13:40:25;;;;;;;;;;;;;;;26.07;45.04;95259.25;4868162;29;9363;-63
2022/12/27 13:43:09;;;;;;;;;;;;;;;26.05;45.41;95266.50;4892516;29;7047;-63
2022/12/27 13:45:48;;;;;;;;;;;;;;;26.02;45.07;95253.69;4878937;29;7537;-63
2022/12/27 13:48:35;;;;;;;;;;;;;;;26.00;45.90;95259.69;4889529;29;7259;-62
2022/12/27 13:51:21;;;;;;;;;;;;;;;26.01;45.91;95274.25;4890914;29;9745;-61
2022/12/27 13:54:26;;;;;;;;;;;;;;;26.02;45.01;95267.47;4889727;29;7045;-62
2022/12/27 13:57:29;;;;;;;;;;;;;;;26.01;45.53;95269.47;4925946;28;9541;-63
2022/12/27 14:00:22;;;;;;;;;;;;;;;26.04;45.77;95271.25;4954709;28;7429;-63
2022/12/27 14:03:21;;;;;;;;;;;;;;;26.07;45.38;95264.75;4932018;28;8282;-63
2022/12/27 14:06:10;;;;;;;;;;;;;;;26.11;45.47;95264.53;4936529;28;7487;-63
2022/12/27 14:08:56;;;;;;;;;;;;;;;26.10;44.58;95272.06;4954540;28;7443;-61
2022/12/27 14:11:59;;;;;;;;;;;;;;;26.10;44.99;95272.06;4950376;28;7380;-62
2022/12/27 14:14:36;;;;;;;;;;;;;;;26.10;44.76;95274.06;4976461;28;9135;-63
2022/12/27 14:17:48;;;;;;;;;;;;;;;26.12;45.05;95268.81;5005895;28;7367;-62
2022/12/27 14:20:49;;;;;;;;;;;;;;;26.13;44.98;95268.31;5006409;28;7238;-63
2022/12/27 14:23:52;;;;;;;;;;;;;;;26.14;44.97;95269.09;4988354;28;7116;-62
2022/12/27 14:26:57;;;;;;;;;;;;;;;26.12;44.41;95261.28;4989871;28;9595;-63
2022/12/27 14:33:17;;;;;;;;;;;;;;;26.13;44.33;95265.56;4992837;28;8635;-64
2022/12/27 14:36:26;;;;;;;;;;;;;;;26.14;45.07;95275.34;4988955;28;8994;-63
2022/12/27 14:39:30;;;;;;;;;;;;;;;26.14;44.36;95269.09;5007255;28;7040;-62
2022/12/27 14:42:24;;;;;;;;;;;;;;;26.13;44.98;95273.84;4986156;28;7162;-62
2022/12/27 14:45:14;;;;;;;;;;;;;;;26.13;44.73;95276.59;5006963;28;7023;-63
2022/12/27 14:48:15;;;;;;;;;;;;;;;26.12;44.41;95266.81;5004398;28;7135;-63
2022/12/27 14:51:07;;;;;;;;;;;;;;;26.12;45.01;95269.56;4981896;28;7057;-62
2022/12/27 14:57:17;;;;;;;;;;;;;;;26.12;44.77;95269.56;4946701;28;7046;-63
2022/12/27 15:00:35;;;;;;;;;;;;;;;26.13;44.12;95270.31;4949461;28;8410;-64
2022/12/27 15:03:18;;;;;;;;;;;;;;;26.12;44.67;95275.06;4949830;28;7186;-62
2022/12/27 15:06:22;;;;;;;;;;;;;;;26.10;44.14;95272.06;4934849;28;7033;-64
2022/12/27 15:09:18;;;;;;;;;;;;;;;26.12;44.15;95268.81;4947013;28;8499;-64
2022/12/27 15:12:29;;;;;;;;;;;;;;;26.09;44.92;95267.03;4931506;28;8401;-64
2022/12/27 15:15:16;;;;;;;;;;;;;;;26.10;44.61;95269.28;4904810;29;7269;-64
2022/12/27 15:18:26;;;;;;;;;;;;;;;26.09;44.86;95270.56;4907246;29;7077;-62
2022/12/27 15:21:07;;;;;;;;;;;;;;;26.12;44.30;95261.28;4861305;29;7326;-64
2022/12/27 15:23:58;;;;;;;;;;;;;;;26.11;43.90;95264.53;4874883;29;8388;-62
2022/12/27 15:26:46;;;;;;;;;;;;;;;26.13;44.42;95259.28;4846949;29;7198;-63
2022/12/27 15:29:57;;;;;;;;;;;;;;;26.14;44.57;95263.56;4857160;29;7286;-63
2022/12/27 15:32:39;;;;;;;;;;;;;;;26.10;43.89;95258.28;4892835;29;7291;-63
2022/12/27 15:35:05;;;;;;;;;;;;;;;26.11;44.54;95254.28;4877069;29;8114;-63
2022/12/27 15:37:52;;;;;;;;;;;;;;;26.14;44.62;95247.03;4878672;29;7331;-63
2022/12/27 15:40:33;;;;;;;;;;;;;;;26.15;43.90;95245.75;4878077;29;6933;-63
2022/12/27 15:43:21;;;;;;;;;;;;;;;26.14;44.44;95247.03;4879011;29;8832;-63
2022/12/27 15:46:10;;;;;;;;;;;;;;;26.13;44.63;95238.00;4882042;29;7101;-63
2022/12/27 15:48:57;;;;;;;;;;;;;;;26.11;44.42;95240.50;4851927;29;7266;-63
2022/12/27 15:52:05;;;;;;;;;;;;;;;26.13;43.96;95228.97;4861781;29;7272;-64
2022/12/27 15:55:08;;;;;;;;;;;;;;;26.14;44.17;95231.22;4877313;29;7220;-64
2022/12/27 15:57:54;;;;;;;;;;;;;;;26.14;44.10;95219.44;4896836;29;7267;-64
2022/12/27 16:00:25;;;;;;;;;;;;;;;26.12;43.71;95221.94;4929200;29;9299;-63
2022/12/27 16:02:58;;;;;;;;;;;;;;;26.10;43.96;95216.16;4925288;29;9058;-63